sensor_id;sensor_type;location;lat;lon;timestamp;pressure;altitude;pressure_sealevel;temperature;humidity
9281;BME280;4679;47.966;7.958;2023-07-13T05:37:54;97299.19;;;18.21;69.97
9281;BME280;4679;47.966;7.958;2023-07-13T05:39:56;97306.41;;;18.26;69.51
9281;BME280;4679;47.966;7.958;2023-07-13T05:41:57;97299.38;;;18.30;69.34
9281;BME280;4679;47.966;7.958;2023-07-13T05:43:59;97305.75;;;18.34;69.78
9281;BME280;4679;47.966;7.958;2023-07-13T05:46:01;97300.53;;;18.24;69.85
9281;BME280;4679;47.966;7.958;2023-07-13T05:48:02;97309.94;;;18.21;69.94
9281;BME280;4679;47.966;7.958;2023-07-13T05:50:05;97309.44;;;18.19;70.07
9281;BME280;4679;47.966;7.958;2023-07-13T05:52:07;97315.31;;;18.21;70.00
9281;BME280;4679;47.966;7.958;2023-07-13T05:54:10;97302.69;;;18.22;69.78
9281;BME280;4679;47.966;7.958;2023-07-13T05:56:12;97306.69;;;18.24;69.92
9281;BME280;4679;47.966;7.958;2023-07-13T05:58:14;97305.41;;;18.41;69.84
9281;BME280;4679;47.966;7.958;2023-07-13T06:00:15;97304.47;;;18.50;69.49
9281;BME280;4679;47.966;7.958;2023-07-13T06:02:17;97304.41;;;18.55;69.42
9281;BME280;4679;47.966;7.958;2023-07-13T06:04:18;97305.50;;;18.54;69.44
9281;BME280;4679;47.966;7.958;2023-07-13T06:06:19;97308.94;;;18.60;69.41
9281;BME280;4679;47.966;7.958;2023-07-13T06:08:21;97316.63;;;18.67;69.26
9281;BME280;4679;47.966;7.958;2023-07-13T06:10:23;97306.41;;;18.69;69.26
9281;BME280;4679;47.966;7.958;2023-07-13T06:12:24;97303.88;;;18.77;68.96
9281;BME280;4679;47.966;7.958;2023-07-13T06:14:26;97311.78;;;18.87;68.73
9281;BME280;4679;47.966;7.958;2023-07-13T06:16:28;97308.91;;;18.97;68.88
9281;BME280;4679;47.966;7.958;2023-07-13T06:18:30;97316.91;;;19.03;68.50
9281;BME280;4679;47.966;7.958;2023-07-13T06:20:33;97323.91;;;19.04;68.34
9281;BME280;4679;47.966;7.958;2023-07-13T06:22:35;97324.19;;;19.02;68.80
9281;BME280;4679;47.966;7.958;2023-07-13T06:24:37;97324.41;;;19.06;68.58
9281;BME280;4679;47.966;7.958;2023-07-13T06:26:40;97318.56;;;19.17;68.11
9281;BME280;4679;47.966;7.958;2023-07-13T06:28:42;97319.47;;;19.26;68.04
9281;BME280;4679;47.966;7.958;2023-07-13T06:30:43;97328.78;;;19.34;67.95
9281;BME280;4679;47.966;7.958;2023-07-13T06:32:45;97319.69;;;19.30;68.00
9281;BME280;4679;47.966;7.958;2023-07-13T06:34:46;97328.88;;;19.29;67.75
9281;BME280;4679;47.966;7.958;2023-07-13T06:36:48;97326.03;;;19.39;67.66
9281;BME280;4679;47.966;7.958;2023-07-13T06:38:50;97330.22;;;19.45;67.43
9281;BME280;4679;47.966;7.958;2023-07-13T06:40:51;97331.09;;;19.41;67.17
9281;BME280;4679;47.966;7.958;2023-07-13T06:42:54;97328.09;;;19.42;67.16
9281;BME280;4679;47.966;7.958;2023-07-13T06:44:56;97333.88;;;19.54;66.68
9281;BME280;4679;47.966;7.958;2023-07-13T06:46:58;97329.91;;;19.65;66.39
9281;BME280;4679;47.966;7.958;2023-07-13T06:48:59;97329.72;;;19.76;66.10
9281;BME280;4679;47.966;7.958;2023-07-13T06:51:03;97328.25;;;19.83;65.98
9281;BME280;4679;47.966;7.958;2023-07-13T06:53:05;97327.94;;;19.85;66.00
9281;BME280;4679;47.966;7.958;2023-07-13T06:55:06;97330.22;;;19.91;65.63
9281;BME280;4679;47.966;7.958;2023-07-13T06:57:08;97322.84;;;19.97;65.38
9281;BME280;4679;47.966;7.958;2023-07-13T06:59:11;97320.53;;;20.04;65.27
9281;BME280;4679;47.966;7.958;2023-07-13T07:01:13;97318.78;;;20.13;64.96
9281;BME280;4679;47.966;7.958;2023-07-13T07:03:14;97330.44;;;20.22;64.59
9281;BME280;4679;47.966;7.958;2023-07-13T07:05:16;97332.91;;;20.32;64.46
9281;BME280;4679;47.966;7.958;2023-07-13T07:07:18;97329.75;;;20.44;64.31
9281;BME280;4679;47.966;7.958;2023-07-13T07:09:20;97332.31;;;20.49;63.90
9281;BME280;4679;47.966;7.958;2023-07-13T07:11:23;97325.34;;;20.48;63.72
9281;BME280;4679;47.966;7.958;2023-07-13T07:13:25;97317.44;;;20.52;63.66
9281;BME280;4679;47.966;7.958;2023-07-13T07:15:30;97326.44;;;20.61;63.66
9281;BME280;4679;47.966;7.958;2023-07-13T07:17:31;97328.50;;;20.64;63.00
9281;BME280;4679;47.966;7.958;2023-07-13T07:19:34;97336.00;;;20.67;62.72
9281;BME280;4679;47.966;7.958;2023-07-13T07:21:36;97334.50;;;20.75;62.94
9281;BME280;4679;47.966;7.958;2023-07-13T07:23:38;97342.06;;;20.86;62.34
9281;BME280;4679;47.966;7.958;2023-07-13T07:25:39;97341.19;;;20.99;61.94
9281;BME280;4679;47.966;7.958;2023-07-13T07:27:42;97339.56;;;21.12;61.77
9281;BME280;4679;47.966;7.958;2023-07-13T07:29:44;97346.16;;;21.20;61.48
9281;BME280;4679;47.966;7.958;2023-07-13T07:31:47;97341.13;;;21.27;61.17
9281;BME280;4679;47.966;7.958;2023-07-13T07:33:48;97353.50;;;21.28;61.06
9281;BME280;4679;47.966;7.958;2023-07-13T07:35:51;97344.81;;;21.31;60.97
9281;BME280;4679;47.966;7.958;2023-07-13T07:37:52;97342.66;;;21.41;60.66
9281;BME280;4679;47.966;7.958;2023-07-13T07:39:53;97345.22;;;21.47;60.13
9281;BME280;4679;47.966;7.958;2023-07-13T07:41:55;97343.81;;;21.49;59.89
9281;BME280;4679;47.966;7.958;2023-07-13T07:43:57;97345.97;;;21.61;59.64
9281;BME280;4679;47.966;7.958;2023-07-13T07:45:59;97338.06;;;21.73;59.23
9281;BME280;4679;47.966;7.958;2023-07-13T07:48:02;97340.19;;;21.85;58.61
9281;BME280;4679;47.966;7.958;2023-07-13T07:50:05;97338.97;;;21.91;58.61
9281;BME280;4679;47.966;7.958;2023-07-13T07:52:07;97343.63;;;21.99;58.41
9281;BME280;4679;47.966;7.958;2023-07-13T07:54:08;97344.59;;;22.03;58.18
9281;BME280;4679;47.966;7.958;2023-07-13T07:56:10;97348.16;;;22.12;58.10
9281;BME280;4679;47.966;7.958;2023-07-13T07:58:12;97348.47;;;22.19;57.67
9281;BME280;4679;47.966;7.958;2023-07-13T08:00:14;97352.81;;;22.29;57.30
9281;BME280;4679;47.966;7.958;2023-07-13T08:02:15;97352.09;;;22.45;56.99
9281;BME280;4679;47.966;7.958;2023-07-13T08:04:18;97355.59;;;22.63;56.73
9281;BME280;4679;47.966;7.958;2023-07-13T08:06:20;97338.63;;;22.80;56.33
9281;BME280;4679;47.966;7.958;2023-07-13T08:08:22;97348.69;;;22.97;55.67
9281;BME280;4679;47.966;7.958;2023-07-13T08:10:24;97347.25;;;22.91;55.41
9281;BME280;4679;47.966;7.958;2023-07-13T08:12:25;97339.94;;;22.91;55.67
9281;BME280;4679;47.966;7.958;2023-07-13T08:14:27;97343.72;;;22.82;55.40
9281;BME280;4679;47.966;7.958;2023-07-13T08:16:29;97344.69;;;22.94;55.04
9281;BME280;4679;47.966;7.958;2023-07-13T08:18:30;97345.50;;;23.12;54.69
9281;BME280;4679;47.966;7.958;2023-07-13T08:20:36;97355.22;;;23.22;54.45
9281;BME280;4679;47.966;7.958;2023-07-13T08:22:38;97353.78;;;23.33;54.15
9281;BME280;4679;47.966;7.958;2023-07-13T08:24:40;97359.69;;;23.35;53.91
9281;BME280;4679;47.966;7.958;2023-07-13T08:26:42;97356.66;;;23.36;53.50
9281;BME280;4679;47.966;7.958;2023-07-13T08:28:44;97350.56;;;23.57;53.19
9281;BME280;4679;47.966;7.958;2023-07-13T08:30:46;97351.97;;;23.80;52.69
9281;BME280;4679;47.966;7.958;2023-07-13T08:32:49;97360.53;;;23.91;52.47
9281;BME280;4679;47.966;7.958;2023-07-13T08:34:51;97358.41;;;24.05;52.30
9281;BME280;4679;47.966;7.958;2023-07-13T08:36:53;97357.34;;;23.97;52.06
9281;BME280;4679;47.966;7.958;2023-07-13T08:38:54;97366.06;;;24.03;51.92
9281;BME280;4679;47.966;7.958;2023-07-13T08:40:57;97362.41;;;23.99;51.90
9281;BME280;4679;47.966;7.958;2023-07-13T08:42:59;97366.91;;;23.95;51.85
9281;BME280;4679;47.966;7.958;2023-07-13T08:45:07;97351.28;;;23.92;51.49
9281;BME280;4679;47.966;7.958;2023-07-13T08:47:11;97347.66;;;23.79;51.44
9281;BME280;4679;47.966;7.958;2023-07-13T08:49:16;97355.81;;;23.79;51.63
9281;BME280;4679;47.966;7.958;2023-07-13T08:51:30;97347.03;;;23.73;51.44
9281;BME280;4679;47.966;7.958;2023-07-13T08:53:39;97355.66;;;23.75;51.48
9281;BME280;4679;47.966;7.958;2023-07-13T08:55:43;97353.41;;;23.77;51.58
9281;BME280;4679;47.966;7.958;2023-07-13T08:57:48;97348.78;;;23.78;51.32
9281;BME280;4679;47.966;7.958;2023-07-13T08:59:52;97344.97;;;23.70;51.68
9281;BME280;4679;47.966;7.958;2023-07-13T09:02:23;97361.25;;;23.62;51.61
9281;BME280;4679;47.966;7.958;2023-07-13T09:04:29;97356.47;;;23.41;51.82
9281;BME280;4679;47.966;7.958;2023-07-13T09:06:55;97361.41;;;23.31;52.10
9281;BME280;4679;47.966;7.958;2023-07-13T09:09:08;97360.78;;;23.17;51.93
9281;BME280;4679;47.966;7.958;2023-07-13T09:11:29;97359.97;;;23.25;51.61
9281;BME280;4679;47.966;7.958;2023-07-13T09:13:39;97356.97;;;23.35;51.42
9281;BME280;4679;47.966;7.958;2023-07-13T09:15:45;97358.84;;;23.69;50.57
9281;BME280;4679;47.966;7.958;2023-07-13T09:17:49;97354.16;;;23.87;50.22
9281;BME280;4679;47.966;7.958;2023-07-13T09:19:56;97358.00;;;23.85;50.13
9281;BME280;4679;47.966;7.958;2023-07-13T09:22:02;97349.22;;;23.97;49.81
9281;BME280;4679;47.966;7.958;2023-07-13T09:24:28;97356.34;;;24.10;49.62
9281;BME280;4679;47.966;7.958;2023-07-13T09:26:32;97362.03;;;24.17;49.79
9281;BME280;4679;47.966;7.958;2023-07-13T09:28:38;97354.22;;;24.16;49.21
9281;BME280;4679;47.966;7.958;2023-07-13T09:30:46;97347.34;;;24.18;49.02
9281;BME280;4679;47.966;7.958;2023-07-13T09:32:53;97352.00;;;24.27;48.75
9281;BME280;4679;47.966;7.958;2023-07-13T09:34:55;97359.28;;;24.35;48.60
9281;BME280;4679;47.966;7.958;2023-07-13T09:36:57;97360.28;;;24.22;48.68
9281;BME280;4679;47.966;7.958;2023-07-13T09:39:02;97359.59;;;23.95;48.86
9281;BME280;4679;47.966;7.958;2023-07-13T09:41:17;97351.25;;;24.00;48.72
9281;BME280;4679;47.966;7.958;2023-07-13T09:43:20;97352.69;;;24.06;48.70
9281;BME280;4679;47.966;7.958;2023-07-13T09:45:27;97352.47;;;24.29;48.15
9281;BME280;4679;47.966;7.958;2023-07-13T09:47:31;97350.31;;;24.43;47.72
9281;BME280;4679;47.966;7.958;2023-07-13T09:49:34;97350.50;;;24.88;47.25
9281;BME280;4679;47.966;7.958;2023-07-13T09:51:37;97348.22;;;24.99;47.30
9281;BME280;4679;47.966;7.958;2023-07-13T09:53:41;97349.25;;;24.85;47.33
9281;BME280;4679;47.966;7.958;2023-07-13T09:55:45;97350.34;;;24.64;47.55
9281;BME280;4679;47.966;7.958;2023-07-13T09:57:48;97347.94;;;24.41;47.65
9281;BME280;4679;47.966;7.958;2023-07-13T09:59:51;97353.19;;;24.38;47.67
9281;BME280;4679;47.966;7.958;2023-07-13T10:01:53;97351.44;;;24.42;47.69
9281;BME280;4679;47.966;7.958;2023-07-13T10:03:55;97353.06;;;24.34;47.47
9281;BME280;4679;47.966;7.958;2023-07-13T10:06:06;97349.22;;;24.35;47.40
9281;BME280;4679;47.966;7.958;2023-07-13T10:08:17;97347.59;;;24.43;47.09
9281;BME280;4679;47.966;7.958;2023-07-13T10:10:21;97352.09;;;24.39;47.06
9281;BME280;4679;47.966;7.958;2023-07-13T10:12:24;97353.34;;;24.41;46.78
9281;BME280;4679;47.966;7.958;2023-07-13T10:14:28;97353.03;;;24.43;46.80
9281;BME280;4679;47.966;7.958;2023-07-13T10:16:32;97358.25;;;24.48;46.67
9281;BME280;4679;47.966;7.958;2023-07-13T10:18:39;97356.28;;;24.86;45.85
9281;BME280;4679;47.966;7.958;2023-07-13T10:20:42;97361.94;;;25.02;45.79
9281;BME280;4679;47.966;7.958;2023-07-13T10:22:48;97361.94;;;25.02;45.95
9281;BME280;4679;47.966;7.958;2023-07-13T10:24:52;97350.28;;;24.93;46.11
9281;BME280;4679;47.966;7.958;2023-07-13T10:26:56;97354.19;;;25.13;45.37
9281;BME280;4679;47.966;7.958;2023-07-13T10:29:03;97354.13;;;25.01;45.61
9281;BME280;4679;47.966;7.958;2023-07-13T10:31:10;97357.09;;;24.78;45.72
9281;BME280;4679;47.966;7.958;2023-07-13T10:33:13;97352.66;;;24.53;45.89
9281;BME280;4679;47.966;7.958;2023-07-13T10:35:17;97352.31;;;24.75;45.25
9281;BME280;4679;47.966;7.958;2023-07-13T10:37:26;97341.66;;;25.00;44.84
9281;BME280;4679;47.966;7.958;2023-07-13T10:39:30;97345.03;;;25.17;45.00
9281;BME280;4679;47.966;7.958;2023-07-13T10:41:37;97350.84;;;25.07;44.78
9281;BME280;4679;47.966;7.958;2023-07-13T10:43:42;97346.81;;;25.13;44.45
9281;BME280;4679;47.966;7.958;2023-07-13T10:45:45;97357.59;;;25.43;44.44
9281;BME280;4679;47.966;7.958;2023-07-13T10:47:52;97353.09;;;25.26;44.00
9281;BME280;4679;47.966;7.958;2023-07-13T10:49:58;97354.50;;;25.32;43.81
9281;BME280;4679;47.966;7.958;2023-07-13T10:52:00;97350.66;;;25.33;43.50
9281;BME280;4679;47.966;7.958;2023-07-13T10:54:16;97358.75;;;25.75;43.03
9281;BME280;4679;47.966;7.958;2023-07-13T10:58:00;97359.88;;;25.74;43.14
9281;BME280;4679;47.966;7.958;2023-07-13T11:00:16;97346.88;;;25.91;42.73
9281;BME280;4679;47.966;7.958;2023-07-13T11:02:24;97353.00;;;26.01;42.50
9281;BME280;4679;47.966;7.958;2023-07-13T11:04:27;97359.69;;;25.58;43.18
9281;BME280;4679;47.966;7.958;2023-07-13T11:06:36;97354.97;;;25.67;42.78
9281;BME280;4679;47.966;7.958;2023-07-13T11:08:51;97354.84;;;25.97;42.18
9281;BME280;4679;47.966;7.958;2023-07-13T11:10:55;97347.72;;;26.16;41.62
9281;BME280;4679;47.966;7.958;2023-07-13T11:12:58;97349.34;;;26.42;41.19
9281;BME280;4679;47.966;7.958;2023-07-13T11:15:04;97357.84;;;26.40;41.49
9281;BME280;4679;47.966;7.958;2023-07-13T11:17:34;97350.56;;;26.32;41.67
9281;BME280;4679;47.966;7.958;2023-07-13T11:19:40;97350.53;;;26.20;41.66
9281;BME280;4679;47.966;7.958;2023-07-13T11:22:10;97350.34;;;26.25;40.83
9281;BME280;4679;47.966;7.958;2023-07-13T11:24:15;97342.63;;;26.27;41.28
9281;BME280;4679;47.966;7.958;2023-07-13T11:26:39;97337.41;;;26.71;40.41
9281;BME280;4679;47.966;7.958;2023-07-13T11:28:42;97340.56;;;26.97;40.21
9281;BME280;4679;47.966;7.958;2023-07-13T11:30:47;97344.03;;;27.10;39.42
9281;BME280;4679;47.966;7.958;2023-07-13T11:33:02;97339.34;;;27.22;39.92
9281;BME280;4679;47.966;7.958;2023-07-13T11:35:12;97333.75;;;27.31;39.25
9281;BME280;4679;47.966;7.958;2023-07-13T11:37:17;97334.75;;;26.99;40.08
9281;BME280;4679;47.966;7.958;2023-07-13T11:39:22;97337.22;;;26.91;40.04
9281;BME280;4679;47.966;7.958;2023-07-13T11:41:30;97330.63;;;26.52;40.07
9281;BME280;4679;47.966;7.958;2023-07-13T11:43:33;97335.22;;;26.15;40.34
9281;BME280;4679;47.966;7.958;2023-07-13T11:45:36;97339.06;;;26.02;40.56
9281;BME280;4679;47.966;7.958;2023-07-13T11:47:40;97336.03;;;26.04;40.84
9281;BME280;4679;47.966;7.958;2023-07-13T11:49:43;97326.97;;;26.12;40.00
9281;BME280;4679;47.966;7.958;2023-07-13T11:51:47;97331.53;;;26.32;40.03
9281;BME280;4679;47.966;7.958;2023-07-13T11:53:55;97329.78;;;26.15;39.95
9281;BME280;4679;47.966;7.958;2023-07-13T11:55:58;97332.16;;;26.05;40.13
9281;BME280;4679;47.966;7.958;2023-07-13T11:58:01;97341.25;;;26.21;39.51
9281;BME280;4679;47.966;7.958;2023-07-13T12:00:11;97335.69;;;26.17;40.09
9281;BME280;4679;47.966;7.958;2023-07-13T12:02:23;97327.22;;;26.43;39.66
9281;BME280;4679;47.966;7.958;2023-07-13T12:04:30;97322.66;;;26.59;39.13
9281;BME280;4679;47.966;7.958;2023-07-13T12:06:34;97325.34;;;26.84;39.08
9281;BME280;4679;47.966;7.958;2023-07-13T12:08:40;97320.66;;;27.09;38.56
9281;BME280;4679;47.966;7.958;2023-07-13T12:10:41;97328.78;;;26.69;39.42
9281;BME280;4679;47.966;7.958;2023-07-13T12:12:51;97333.31;;;26.16;39.75
9281;BME280;4679;47.966;7.958;2023-07-13T12:14:53;97333.44;;;26.19;39.27
9281;BME280;4679;47.966;7.958;2023-07-13T12:16:55;97331.19;;;26.46;38.98
9281;BME280;4679;47.966;7.958;2023-07-13T12:18:58;97331.00;;;27.03;38.37
9281;BME280;4679;47.966;7.958;2023-07-13T12:21:00;97326.38;;;27.19;38.11
9281;BME280;4679;47.966;7.958;2023-07-13T12:23:05;97328.78;;;27.21;38.03
9281;BME280;4679;47.966;7.958;2023-07-13T12:25:11;97332.16;;;27.58;38.36
9281;BME280;4679;47.966;7.958;2023-07-13T12:27:20;97332.91;;;27.86;37.89
9281;BME280;4679;47.966;7.958;2023-07-13T12:29:23;97330.72;;;27.92;37.82
9281;BME280;4679;47.966;7.958;2023-07-13T12:31:34;97322.47;;;28.20;37.47
9281;BME280;4679;47.966;7.958;2023-07-13T12:33:39;97332.13;;;28.49;37.25
9281;BME280;4679;47.966;7.958;2023-07-13T12:35:46;97325.53;;;28.50;37.15
9281;BME280;4679;47.966;7.958;2023-07-13T12:37:48;97335.66;;;28.49;36.96
9281;BME280;4679;47.966;7.958;2023-07-13T12:39:51;97325.16;;;28.51;36.27
9281;BME280;4679;47.966;7.958;2023-07-13T12:41:53;97324.50;;;28.74;36.59
9281;BME280;4679;47.966;7.958;2023-07-13T12:43:55;97325.00;;;28.95;36.15
9281;BME280;4679;47.966;7.958;2023-07-13T12:45:58;97333.03;;;28.88;36.21
9281;BME280;4679;47.966;7.958;2023-07-13T12:48:04;97333.03;;;28.88;36.25
9281;BME280;4679;47.966;7.958;2023-07-13T12:50:15;97334.06;;;28.99;35.78
9281;BME280;4679;47.966;7.958;2023-07-13T12:52:21;97322.34;;;29.18;35.73
9281;BME280;4679;47.966;7.958;2023-07-13T12:54:23;97320.69;;;29.32;35.80
9281;BME280;4679;47.966;7.958;2023-07-13T12:56:27;97322.47;;;29.05;35.80
9281;BME280;4679;47.966;7.958;2023-07-13T12:58:32;97322.84;;;29.23;35.70
9281;BME280;4679;47.966;7.958;2023-07-13T13:00:37;97322.22;;;29.30;35.38
9281;BME280;4679;47.966;7.958;2023-07-13T13:02:39;97316.97;;;29.41;35.34
9281;BME280;4679;47.966;7.958;2023-07-13T13:04:41;97310.97;;;29.54;35.21
9281;BME280;4679;47.966;7.958;2023-07-13T13:06:43;97312.88;;;29.73;35.14
9281;BME280;4679;47.966;7.958;2023-07-13T13:08:49;97309.44;;;29.76;34.85
9281;BME280;4679;47.966;7.958;2023-07-13T13:10:51;97310.91;;;29.31;35.43
9281;BME280;4679;47.966;7.958;2023-07-13T13:12:53;97319.59;;;28.98;35.46
9281;BME280;4679;47.966;7.958;2023-07-13T13:14:54;97322.63;;;29.13;35.41
9281;BME280;4679;47.966;7.958;2023-07-13T13:16:56;97318.44;;;29.38;35.39
9281;BME280;4679;47.966;7.958;2023-07-13T13:19:00;97318.53;;;29.22;35.30
9281;BME280;4679;47.966;7.958;2023-07-13T13:21:02;97324.59;;;29.31;35.30
9281;BME280;4679;47.966;7.958;2023-07-13T13:23:04;97317.88;;;29.29;35.16
9281;BME280;4679;47.966;7.958;2023-07-13T13:25:09;97315.00;;;29.60;34.70
9281;BME280;4679;47.966;7.958;2023-07-13T13:27:15;97319.16;;;29.73;34.61
9281;BME280;4679;47.966;7.958;2023-07-13T13:29:19;97310.59;;;29.56;34.69
9281;BME280;4679;47.966;7.958;2023-07-13T13:31:24;97308.66;;;29.56;34.52
9281;BME280;4679;47.966;7.958;2023-07-13T13:33:26;97308.31;;;29.38;34.93
9281;BME280;4679;47.966;7.958;2023-07-13T13:35:28;97311.34;;;28.95;35.54
9281;BME280;4679;47.966;7.958;2023-07-13T13:37:30;97314.78;;;28.57;36.11
9281;BME280;4679;47.966;7.958;2023-07-13T13:39:33;97312.50;;;28.43;36.00
9281;BME280;4679;47.966;7.958;2023-07-13T13:41:37;97312.19;;;28.64;35.40
9281;BME280;4679;47.966;7.958;2023-07-13T13:43:40;97312.41;;;28.75;35.54
9281;BME280;4679;47.966;7.958;2023-07-13T13:45:42;97312.63;;;28.82;35.70
9281;BME280;4679;47.966;7.958;2023-07-13T13:47:44;97322.00;;;29.00;35.20
9281;BME280;4679;47.966;7.958;2023-07-13T13:49:47;97322.47;;;28.86;35.82
9281;BME280;4679;47.966;7.958;2023-07-13T13:51:48;97327.50;;;29.03;34.95
9281;BME280;4679;47.966;7.958;2023-07-13T13:53:50;97314.91;;;28.80;35.64
9281;BME280;4679;47.966;7.958;2023-07-13T13:55:53;97314.00;;;28.56;35.67
9281;BME280;4679;47.966;7.958;2023-07-13T13:57:56;97323.28;;;29.06;35.18
9281;BME280;4679;47.966;7.958;2023-07-13T13:59:58;97320.81;;;29.20;34.93
9281;BME280;4679;47.966;7.958;2023-07-13T14:02:01;97314.44;;;29.32;34.46
9281;BME280;4679;47.966;7.958;2023-07-13T14:04:03;97314.47;;;29.35;34.76
9281;BME280;4679;47.966;7.958;2023-07-13T14:06:04;97315.72;;;29.38;34.73
9281;BME280;4679;47.966;7.958;2023-07-13T14:08:10;97308.19;;;29.31;34.76
9281;BME280;4679;47.966;7.958;2023-07-13T14:10:17;97315.38;;;29.01;34.91
9281;BME280;4679;47.966;7.958;2023-07-13T14:12:19;97315.06;;;28.87;34.96
9281;BME280;4679;47.966;7.958;2023-07-13T14:14:24;97321.63;;;28.66;35.40
9281;BME280;4679;47.966;7.958;2023-07-13T14:16:29;97319.28;;;28.33;35.85
9281;BME280;4679;47.966;7.958;2023-07-13T14:18:32;97315.69;;;28.29;35.73
9281;BME280;4679;47.966;7.958;2023-07-13T14:20:34;97319.19;;;27.98;35.88
9281;BME280;4679;47.966;7.958;2023-07-13T14:22:36;97316.16;;;27.56;36.43
9281;BME280;4679;47.966;7.958;2023-07-13T14:24:36;97322.19;;;27.50;36.83
9281;BME280;4679;47.966;7.958;2023-07-13T14:26:40;97319.81;;;27.76;36.31
9281;BME280;4679;47.966;7.958;2023-07-13T14:28:43;97322.34;;;27.69;36.31
9281;BME280;4679;47.966;7.958;2023-07-13T14:30:47;97327.16;;;27.60;36.54
9281;BME280;4679;47.966;7.958;2023-07-13T14:32:49;97317.81;;;27.05;37.08
9281;BME280;4679;47.966;7.958;2023-07-13T14:34:51;97322.84;;;26.79;37.44
9281;BME280;4679;47.966;7.958;2023-07-13T14:36:53;97322.28;;;26.98;37.40
9281;BME280;4679;47.966;7.958;2023-07-13T14:38:56;97325.00;;;26.85;37.31
9281;BME280;4679;47.966;7.958;2023-07-13T14:40:58;97328.25;;;26.51;38.30
9281;BME280;4679;47.966;7.958;2023-07-13T14:42:59;97329.16;;;26.31;38.05
9281;BME280;4679;47.966;7.958;2023-07-13T14:45:01;97333.09;;;26.45;38.38
9281;BME280;4679;47.966;7.958;2023-07-13T14:47:05;97325.06;;;26.37;38.27
9281;BME280;4679;47.966;7.958;2023-07-13T14:49:15;97332.19;;;26.17;38.21
9281;BME280;4679;47.966;7.958;2023-07-13T14:51:22;97329.00;;;26.03;38.79
9281;BME280;4679;47.966;7.958;2023-07-13T14:53:25;97333.41;;;25.95;39.12
9281;BME280;4679;47.966;7.958;2023-07-13T14:55:28;97336.13;;;25.95;38.50
9281;BME280;4679;47.966;7.958;2023-07-13T14:57:29;97328.19;;;25.90;38.49
9281;BME280;4679;47.966;7.958;2023-07-13T14:59:31;97325.44;;;25.78;38.85
9281;BME280;4679;47.966;7.958;2023-07-13T15:01:33;97331.03;;;25.61;39.21
9281;BME280;4679;47.966;7.958;2023-07-13T15:03:38;97320.78;;;25.66;39.37
9281;BME280;4679;47.966;7.958;2023-07-13T15:05:42;97320.78;;;25.66;39.50
9281;BME280;4679;47.966;7.958;2023-07-13T15:07:44;97324.88;;;25.51;39.51
9281;BME280;4679;47.966;7.958;2023-07-13T15:09:45;97325.06;;;25.34;40.08
9281;BME280;4679;47.966;7.958;2023-07-13T15:11:47;97330.72;;;25.29;39.84
9281;BME280;4679;47.966;7.958;2023-07-13T15:13:49;97319.56;;;25.22;39.99
9281;BME280;4679;47.966;7.958;2023-07-13T15:15:52;97330.09;;;25.23;39.93
9281;BME280;4679;47.966;7.958;2023-07-13T15:17:55;97323.38;;;25.09;40.37
9281;BME280;4679;47.966;7.958;2023-07-13T15:19:58;97322.38;;;25.13;40.37
9281;BME280;4679;47.966;7.958;2023-07-13T15:22:01;97322.97;;;25.19;40.40
9281;BME280;4679;47.966;7.958;2023-07-13T15:24:05;97321.06;;;25.19;40.39
9281;BME280;4679;47.966;7.958;2023-07-13T15:26:13;97318.59;;;25.27;40.03
9281;BME280;4679;47.966;7.958;2023-07-13T15:28:16;97313.09;;;25.35;40.12
9281;BME280;4679;47.966;7.958;2023-07-13T15:30:18;97317.44;;;25.48;39.87
9281;BME280;4679;47.966;7.958;2023-07-13T15:32:19;97318.56;;;25.47;39.82
9281;BME280;4679;47.966;7.958;2023-07-13T15:34:25;97317.72;;;25.35;40.33
9281;BME280;4679;47.966;7.958;2023-07-13T15:36:29;97315.63;;;25.19;40.24
9281;BME280;4679;47.966;7.958;2023-07-13T15:38:30;97315.22;;;25.09;40.38
9281;BME280;4679;47.966;7.958;2023-07-13T15:40:33;97316.81;;;25.10;40.74
9281;BME280;4679;47.966;7.958;2023-07-13T15:42:35;97321.84;;;25.20;40.30
9281;BME280;4679;47.966;7.958;2023-07-13T15:44:42;97321.84;;;25.20;40.52
9281;BME280;4679;47.966;7.958;2023-07-13T15:46:44;97321.50;;;25.21;40.54
9281;BME280;4679;47.966;7.958;2023-07-13T15:48:45;97319.47;;;25.18;40.69
9281;BME280;4679;47.966;7.958;2023-07-13T15:50:49;97328.09;;;25.20;40.57
9281;BME280;4679;47.966;7.958;2023-07-13T15:52:53;97317.97;;;25.21;40.38
9281;BME280;4679;47.966;7.958;2023-07-13T15:54:58;97327.25;;;25.41;40.41
9281;BME280;4679;47.966;7.958;2023-07-13T15:57:02;97320.59;;;25.50;40.20
9281;BME280;4679;47.966;7.958;2023-07-13T15:59:03;97318.28;;;25.40;40.48
9281;BME280;4679;47.966;7.958;2023-07-13T16:01:04;97319.75;;;25.38;40.63
9281;BME280;4679;47.966;7.958;2023-07-13T16:03:07;97322.94;;;25.40;40.66
9281;BME280;4679;47.966;7.958;2023-07-13T16:05:09;97317.50;;;25.40;40.60
9281;BME280;4679;47.966;7.958;2023-07-13T16:07:11;97315.97;;;25.51;40.19
9281;BME280;4679;47.966;7.958;2023-07-13T16:09:19;97317.44;;;25.61;40.48
9281;BME280;4679;47.966;7.958;2023-07-13T16:11:24;97311.94;;;25.69;40.59
9281;BME280;4679;47.966;7.958;2023-07-13T16:13:26;97326.59;;;25.77;40.58
9281;BME280;4679;47.966;7.958;2023-07-13T16:15:27;97316.03;;;25.63;40.80
9281;BME280;4679;47.966;7.958;2023-07-13T16:17:29;97316.72;;;25.51;40.53
9281;BME280;4679;47.966;7.958;2023-07-13T16:19:31;97317.50;;;25.40;40.66
9281;BME280;4679;47.966;7.958;2023-07-13T16:21:37;97324.94;;;25.31;41.27
9281;BME280;4679;47.966;7.958;2023-07-13T16:23:42;97314.84;;;25.19;41.38
9281;BME280;4679;47.966;7.958;2023-07-13T16:25:46;97322.84;;;25.15;41.23
9281;BME280;4679;47.966;7.958;2023-07-13T16:27:49;97319.00;;;25.16;41.45
9281;BME280;4679;47.966;7.958;2023-07-13T16:29:52;97327.53;;;25.06;41.35
9281;BME280;4679;47.966;7.958;2023-07-13T16:32:00;97325.97;;;25.05;41.91
9281;BME280;4679;47.966;7.958;2023-07-13T16:34:01;97322.97;;;24.98;41.49
9281;BME280;4679;47.966;7.958;2023-07-13T16:36:08;97325.84;;;24.93;41.47
9281;BME280;4679;47.966;7.958;2023-07-13T16:38:14;97315.81;;;24.94;41.76
9281;BME280;4679;47.966;7.958;2023-07-13T16:40:22;97316.91;;;24.93;41.62
9281;BME280;4679;47.966;7.958;2023-07-13T16:42:26;97316.91;;;24.93;41.78
9281;BME280;4679;47.966;7.958;2023-07-13T16:44:29;97330.81;;;24.91;41.87
9281;BME280;4679;47.966;7.958;2023-07-13T16:46:33;97324.66;;;24.82;41.89
9281;BME280;4679;47.966;7.958;2023-07-13T16:48:34;97330.63;;;24.75;42.13
9281;BME280;4679;47.966;7.958;2023-07-13T16:50:38;97335.38;;;24.78;42.17
9281;BME280;4679;47.966;7.958;2023-07-13T16:52:39;97326.97;;;24.92;41.66
9281;BME280;4679;47.966;7.958;2023-07-13T16:54:41;97334.97;;;24.97;41.77